Check out our new BloomSky Weather System.

Active alerts

Houston, TX
  Details for Houston, TX Dense Fog Advisory


Thunder radar  blitzortung!


Rain radar more information rain snow radar


Visit our other weather sites:

Template documentation
and downloads

And another site



Weather Underground History page Text

Daily Summary for April 2, 2017 Units:  English    Metric   Both
« Previous Day
Next Day »
Daily Weekly Monthly Yearly Custom
  High: Low: Average:
Temperature: 81.0 °F 64.0 °F 72.6 °F
Dew Point: 75.7 °F 62.4 °F 69.4 °F
Humidity: 98 % 74 % 90 %
Wind Speed: 16.0 mph 0.0 mph 3 mph
Wind Gust: 19.0 mph - -
Wind:- - SSE
Pressure: 29.86 in 29.59 in -
Precipitation: 0.64 in    
Historical Graphs
 
 
Tabular Data for April 2, 2017
Time Temperature Dew Point Pressure Wind Wind Speed Wind Gust Humidity Rainfall Rate (Hourly)
00:00 71.2 °F 67.5 °F 29.86 in ESE 1.0 mph 8.0 mph 88 % 0.00 in
00:05 71.1 °F 67.6 °F 29.86 in SE 2.0 mph 9.0 mph 89 % 0.00 in
00:10 71.1 °F 67.6 °F 29.85 in ESE 1.0 mph 9.0 mph 89 % 0.00 in
00:15 71.1 °F 67.6 °F 29.85 in ENE 2.0 mph 9.0 mph 89 % 0.00 in
00:20 70.9 °F 67.5 °F 29.85 in East 1.0 mph 8.0 mph 89 % 0.00 in
00:25 70.9 °F 67.8 °F 29.85 in ESE 4.0 mph 8.0 mph 90 % 0.00 in
00:30 70.9 °F 67.8 °F 29.85 in East 3.0 mph 8.0 mph 90 % 0.00 in
00:35 70.9 °F 67.8 °F 29.85 in SE 4.0 mph 8.0 mph 90 % 0.00 in
00:40 70.7 °F 67.6 °F 29.84 in ESE 1.0 mph 8.0 mph 90 % 0.00 in
00:45 70.7 °F 68.0 °F 29.84 in East 3.0 mph 10.0 mph 91 % 0.00 in
00:50 70.7 °F 68.0 °F 29.83 in East 2.0 mph 10.0 mph 91 % 0.00 in
00:55 70.7 °F 68.0 °F 29.84 in ENE 7.0 mph 11.0 mph 91 % 0.00 in
01:00 70.9 °F 68.2 °F 29.84 in SE 2.0 mph 11.0 mph 91 % 0.00 in
01:05 70.9 °F 68.2 °F 29.84 in South 1.0 mph 11.0 mph 91 % 0.00 in
01:10 70.9 °F 68.2 °F 29.83 in East 2.0 mph 8.0 mph 91 % 0.00 in
01:15 70.9 °F 68.2 °F 29.84 in East 2.0 mph 8.0 mph 91 % 0.00 in
01:20 71.1 °F 68.4 °F 29.83 in SW 1.0 mph 8.0 mph 91 % 0.00 in
01:25 71.1 °F 68.4 °F 29.83 in SSE 1.0 mph 7.0 mph 91 % 0.00 in
01:30 71.2 °F 68.5 °F 29.83 in Calm   7.0 mph 91 % 0.00 in
01:35 71.2 °F 68.5 °F 29.83 in Calm   7.0 mph 91 % 0.00 in
01:40 71.2 °F 68.5 °F 29.83 in ESE 1.0 mph 7.0 mph 91 % 0.00 in
01:45 71.4 °F 68.9 °F 29.83 in ESE 1.0 mph 6.0 mph 92 % 0.00 in
01:50 71.4 °F 68.9 °F 29.83 in ESE 1.0 mph 6.0 mph 92 % 0.00 in
01:55 71.6 °F 68.9 °F 29.83 in SE 4.0 mph 6.0 mph 91 % 0.00 in
02:00 71.8 °F 69.1 °F 29.82 in Calm   9.0 mph 91 % 0.00 in
02:05 71.8 °F 69.1 °F 29.82 in SE 1.0 mph 9.0 mph 91 % 0.00 in
02:10 71.8 °F 69.1 °F 29.82 in ESE 6.0 mph 9.0 mph 91 % 0.00 in
02:15 72.0 °F 69.3 °F 29.81 in East 6.0 mph 10.0 mph 91 % 0.00 in
02:20 72.1 °F 69.4 °F 29.81 in SE 1.0 mph 10.0 mph 91 % 0.00 in
02:25 72.1 °F 69.4 °F 29.81 in ESE 3.0 mph 10.0 mph 91 % 0.00 in
02:30 72.3 °F 69.6 °F 29.81 in SSE 3.0 mph 10.0 mph 91 % 0.00 in
02:35 72.3 °F 69.6 °F 29.80 in SSE 4.0 mph 6.0 mph 91 % 0.00 in
02:40 72.3 °F 69.6 °F 29.79 in SSE 3.0 mph 11.0 mph 91 % 0.00 in
02:45 72.3 °F 69.6 °F 29.79 in East 6.0 mph 11.0 mph 91 % 0.00 in
02:50 72.3 °F 69.6 °F 29.79 in ESE 1.0 mph 11.0 mph 91 % 0.00 in
02:55 72.3 °F 69.6 °F 29.79 in ESE 2.0 mph 9.0 mph 91 % 0.00 in
03:00 72.1 °F 69.4 °F 29.78 in SSE 2.0 mph 9.0 mph 91 % 0.00 in
03:05 72.1 °F 69.4 °F 29.78 in East 1.0 mph 7.0 mph 91 % 0.00 in
03:10 72.0 °F 69.4 °F 29.78 in ENE 1.0 mph 7.0 mph 92 % 0.00 in
03:15 72.0 °F 69.4 °F 29.78 in Calm   6.0 mph 92 % 0.00 in
03:20 72.0 °F 69.4 °F 29.78 in ENE 6.0 mph 7.0 mph 92 % 0.00 in
03:25 72.0 °F 69.4 °F 29.78 in East 2.0 mph 7.0 mph 92 % 0.00 in
03:30 72.0 °F 69.4 °F 29.78 in East 2.0 mph 7.0 mph 92 % 0.00 in
03:35 72.0 °F 69.4 °F 29.78 in Calm   7.0 mph 92 % 0.00 in
03:40 72.0 °F 69.4 °F 29.78 in ESE 2.0 mph 7.0 mph 92 % 0.00 in
03:45 72.1 °F 69.6 °F 29.77 in ENE 1.0 mph 7.0 mph 92 % 0.00 in
03:50 72.0 °F 69.4 °F 29.77 in East 2.0 mph 8.0 mph 92 % 0.00 in
03:55 72.1 °F 70.0 °F 29.77 in ENE 4.0 mph 9.0 mph 93 % 0.00 in
04:00 72.1 °F 70.0 °F 29.76 in SE 4.0 mph 9.0 mph 93 % 0.00 in
04:05 72.1 °F 70.0 °F 29.77 in SE 5.0 mph 9.0 mph 93 % 0.00 in
04:10 72.1 °F 70.0 °F 29.77 in Calm   7.0 mph 93 % 0.00 in
04:15 72.1 °F 70.0 °F 29.77 in SE 1.0 mph 7.0 mph 93 % 0.00 in
04:20 72.1 °F 70.0 °F 29.78 in ESE 1.0 mph 7.0 mph 93 % 0.00 in
04:25 72.1 °F 70.0 °F 29.77 in Calm   6.0 mph 93 % 0.00 in
04:30 72.1 °F 70.0 °F 29.77 in SSE 2.0 mph 8.0 mph 93 % 0.00 in
04:35 72.3 °F 70.2 °F 29.77 in ESE 2.0 mph 8.0 mph 93 % 0.00 in
04:40 72.3 °F 70.2 °F 29.78 in Calm   8.0 mph 93 % 0.00 in
04:45 72.3 °F 70.2 °F 29.77 in Calm   4.0 mph 93 % 0.00 in
04:50 72.3 °F 70.2 °F 29.77 in Calm   3.0 mph 93 % 0.00 in
04:55 72.3 °F 70.2 °F 29.77 in ENE 2.0 mph 3.0 mph 93 % 0.00 in
05:00 72.3 °F 70.2 °F 29.76 in Calm   2.0 mph 93 % 0.00 in
05:05 72.1 °F 70.0 °F 29.77 in Calm   2.0 mph 93 % 0.00 in
05:10 72.1 °F 70.3 °F 29.76 in Calm   3.0 mph 94 % 0.00 in
05:15 72.0 °F 70.2 °F 29.76 in ENE 4.0 mph 4.0 mph 94 % 0.01 in
05:18 72.0 °F 70.2 °F 29.75 in NE 1.0 mph 3.0 mph 94 % 0.01 in
05:23 71.8 °F 70.0 °F 29.75 in NNE 1.0 mph 4.0 mph 94 % 0.01 in
05:28 71.6 °F 70.2 °F 29.75 in East 1.0 mph 6.0 mph 95 % 0.01 in
05:33 71.4 °F 70.0 °F 29.75 in East 1.0 mph 6.0 mph 95 % 0.01 in
05:38 71.4 °F 70.0 °F 29.75 in East 2.0 mph 6.0 mph 95 % 0.01 in
05:43 71.4 °F 70.2 °F 29.74 in NNE 3.0 mph 5.0 mph 96 % 0.02 in
05:48 71.2 °F 70.0 °F 29.73 in ENE 3.0 mph 5.0 mph 96 % 0.02 in
05:53 71.2 °F 70.0 °F 29.73 in Calm   5.0 mph 96 % 0.02 in
05:58 71.1 °F 69.8 °F 29.73 in Calm   5.0 mph 96 % 0.02 in
06:03 70.9 °F 69.6 °F 29.73 in Calm   6.0 mph 96 % 0.04 in
06:08 70.7 °F 69.4 °F 29.73 in ENE 3.0 mph 6.0 mph 96 % 0.04 in
06:13 70.7 °F 69.8 °F 29.73 in NNE 2.0 mph 6.0 mph 97 % 0.04 in
06:18 70.7 °F 69.8 °F 29.73 in ESE 1.0 mph 6.0 mph 97 % 0.03 in
06:23 70.9 °F 70.0 °F 29.73 in SE 1.0 mph 6.0 mph 97 % 0.03 in
06:28 71.1 °F 70.2 °F 29.72 in East 2.0 mph 4.0 mph 97 % 0.03 in
06:33 71.4 °F 70.9 °F 29.72 in SE 4.0 mph 6.0 mph 98 % 0.03 in
06:38 72.1 °F 71.6 °F 29.72 in SE 4.0 mph 8.0 mph 98 % 0.03 in
06:41 72.3 °F 71.8 °F 29.73 in SSE 7.0 mph 14.0 mph 98 % 0.02 in
06:46 72.9 °F 72.3 °F 29.73 in ESE 4.0 mph 14.0 mph 98 % 0.02 in
06:51 72.9 °F 72.3 °F 29.72 in SSE 6.0 mph 14.0 mph 98 % 0.02 in
06:56 73.0 °F 72.5 °F 29.72 in ESE 3.0 mph 11.0 mph 98 % 0.02 in
07:01 73.0 °F 72.5 °F 29.72 in SE 9.0 mph 13.0 mph 98 % 0.00 in
07:06 73.2 °F 72.7 °F 29.72 in SSE 4.0 mph 13.0 mph 98 % 0.00 in
07:11 73.2 °F 72.7 °F 29.72 in SSE 9.0 mph 13.0 mph 98 % 0.00 in
07:16 73.2 °F 72.7 °F 29.73 in ESE 5.0 mph 12.0 mph 98 % 0.00 in
07:21 73.2 °F 72.3 °F 29.73 in SE 5.0 mph 12.0 mph 97 % 0.00 in
07:26 73.4 °F 72.5 °F 29.73 in ESE 7.0 mph 12.0 mph 97 % 0.00 in
07:31 73.4 °F 72.5 °F 29.73 in South 7.0 mph 12.0 mph 97 % 0.00 in
07:36 73.6 °F 72.7 °F 29.72 in SE 8.0 mph 12.0 mph 97 % 0.00 in
07:41 73.6 °F 72.7 °F 29.73 in SSE 5.0 mph 13.0 mph 97 % 0.00 in
07:46 73.6 °F 72.7 °F 29.73 in SSE 3.0 mph 13.0 mph 97 % 0.04 in
07:51 73.6 °F 72.7 °F 29.73 in SSE 2.0 mph 13.0 mph 97 % 0.04 in
07:56 73.6 °F 72.7 °F 29.73 in SE 4.0 mph 12.0 mph 97 % 0.04 in
08:01 73.6 °F 72.7 °F 29.73 in SSW 8.0 mph 12.0 mph 97 % 0.05 in
08:06 73.6 °F 72.7 °F 29.72 in ESE 11.0 mph 14.0 mph 97 % 0.05 in
08:11 73.6 °F 72.7 °F 29.72 in ESE 6.0 mph 14.0 mph 97 % 0.06 in
08:16 73.6 °F 72.7 °F 29.71 in South 7.0 mph 14.0 mph 97 % 0.10 in
08:21 73.4 °F 72.5 °F 29.71 in ESE 7.0 mph 14.0 mph 97 % 0.10 in
08:26 73.4 °F 72.5 °F 29.70 in SE 7.0 mph 18.0 mph 97 % 0.10 in
08:31 73.2 °F 72.3 °F 29.69 in East 9.0 mph 18.0 mph 97 % 0.10 in
08:36 73.2 °F 72.3 °F 29.69 in SE 9.0 mph 18.0 mph 97 % 0.10 in
08:41 73.2 °F 72.3 °F 29.70 in SE 1.0 mph 16.0 mph 97 % 0.10 in
08:46 73.2 °F 72.3 °F 29.69 in SE 9.0 mph 14.0 mph 97 % 0.06 in
08:51 73.4 °F 72.5 °F 29.69 in SSE 4.0 mph 14.0 mph 97 % 0.06 in
08:56 73.4 °F 72.5 °F 29.69 in South 3.0 mph 15.0 mph 97 % 0.05 in
09:01 73.6 °F 72.7 °F 29.69 in East 6.0 mph 15.0 mph 97 % 0.05 in
09:06 73.6 °F 72.7 °F 29.69 in SE 7.0 mph 15.0 mph 97 % 0.05 in
09:11 73.6 °F 72.7 °F 29.69 in South 5.0 mph 13.0 mph 97 % 0.04 in
09:16 73.8 °F 72.9 °F 29.69 in SSE 7.0 mph 13.0 mph 97 % 0.00 in
09:21 73.8 °F 72.9 °F 29.69 in ESE 8.0 mph 16.0 mph 97 % 0.00 in
09:26 73.9 °F 73.0 °F 29.69 in ESE 11.0 mph 16.0 mph 97 % 0.00 in
09:31 73.9 °F 72.7 °F 29.68 in ESE 5.0 mph 16.0 mph 96 % 0.00 in
09:32 73.9 °F 72.7 °F 29.68 in SE 8.0 mph 16.0 mph 96 % 0.00 in
09:37 74.1 °F 72.9 °F 29.70 in SE 7.0 mph 17.0 mph 96 % 0.00 in
09:42 74.3 °F 72.9 °F 29.70 in SSE 10.0 mph 17.0 mph 95 % 0.00 in
09:47 74.5 °F 73.0 °F 29.71 in SSE 7.0 mph 17.0 mph 95 % 0.00 in
09:52 74.7 °F 73.2 °F 29.71 in SE 4.0 mph 15.0 mph 95 % 0.00 in
09:57 74.8 °F 73.0 °F 29.71 in SSE 4.0 mph 15.0 mph 94 % 0.00 in
10:02 74.8 °F 73.0 °F 29.71 in SE 6.0 mph 15.0 mph 94 % 0.00 in
10:07 75.0 °F 73.2 °F 29.71 in East 6.0 mph 15.0 mph 94 % 0.00 in
10:12 75.2 °F 73.0 °F 29.71 in SSE 7.0 mph 10.0 mph 93 % 0.00 in
10:17 75.4 °F 73.2 °F 29.71 in South 2.0 mph 10.0 mph 93 % 0.00 in
10:22 75.4 °F 73.2 °F 29.71 in SSW 3.0 mph 10.0 mph 93 % 0.00 in
10:27 75.6 °F 73.4 °F 29.70 in SE 3.0 mph 10.0 mph 93 % 0.00 in
10:32 75.6 °F 73.4 °F 29.70 in SE 6.0 mph 10.0 mph 93 % 0.00 in
10:37 75.7 °F 73.2 °F 29.70 in SSE 3.0 mph 11.0 mph 92 % 0.00 in
10:42 75.7 °F 73.2 °F 29.70 in SE 5.0 mph 11.0 mph 92 % 0.00 in
10:47 75.9 °F 73.4 °F 29.70 in ESE 8.0 mph 12.0 mph 92 % 0.00 in
10:52 76.1 °F 73.6 °F 29.70 in SE 6.0 mph 13.0 mph 92 % 0.00 in
10:57 76.3 °F 73.4 °F 29.70 in SE 16.0 mph 16.0 mph 91 % 0.00 in
11:02 76.5 °F 73.6 °F 29.71 in SE 7.0 mph 16.0 mph 91 % 0.00 in
11:07 76.6 °F 73.4 °F 29.71 in South 5.0 mph 16.0 mph 90 % 0.00 in
11:08 76.6 °F 73.4 °F 29.71 in SE 6.0 mph 16.0 mph 90 % 0.00 in
11:13 76.8 °F 73.6 °F 29.71 in SSE 5.0 mph 16.0 mph 90 % 0.00 in
11:18 76.8 °F 73.6 °F 29.71 in SSW 8.0 mph 13.0 mph 90 % 0.00 in
11:23 77.2 °F 73.9 °F 29.72 in South 4.0 mph 13.0 mph 90 % 0.00 in
11:28 77.4 °F 74.1 °F 29.71 in SE 8.0 mph 13.0 mph 90 % 0.00 in
11:33 77.5 °F 74.3 °F 29.71 in SE 8.0 mph 13.0 mph 90 % 0.00 in
11:38 77.9 °F 74.5 °F 29.71 in South 15.0 mph 17.0 mph 89 % 0.00 in
11:43 78.1 °F 74.5 °F 29.70 in ESE 12.0 mph 17.0 mph 89 % 0.00 in
11:48 78.3 °F 74.5 °F 29.71 in East 10.0 mph 19.0 mph 88 % 0.00 in
11:53 78.3 °F 74.5 °F 29.71 in SSW 7.0 mph 19.0 mph 88 % 0.00 in
11:58 78.4 °F 74.7 °F 29.71 in SSW 9.0 mph 19.0 mph 88 % 0.00 in
12:03 78.4 °F 74.7 °F 29.71 in South 4.0 mph 17.0 mph 88 % 0.00 in
12:08 78.4 °F 74.3 °F 29.70 in ESE 9.0 mph 11.0 mph 87 % 0.00 in
12:13 78.6 °F 74.5 °F 29.69 in ESE 7.0 mph 16.0 mph 87 % 0.00 in
12:18 79.0 °F 74.8 °F 29.69 in SE 7.0 mph 16.0 mph 87 % 0.00 in
12:23 79.2 °F 74.7 °F 29.68 in SE 11.0 mph 16.0 mph 86 % 0.00 in
12:28 79.3 °F 75.2 °F 29.68 in SSE 7.0 mph 17.0 mph 87 % 0.00 in
12:33 80.1 °F 75.2 °F 29.67 in SW 8.0 mph 17.0 mph 85 % 0.00 in
12:38 81.0 °F 75.7 °F 29.68 in SE 8.0 mph 17.0 mph 84 % 0.00 in
12:43 80.8 °F 75.2 °F 29.68 in SSE 15.0 mph 18.0 mph 83 % 0.00 in
12:48 80.4 °F 75.2 °F 29.68 in South 9.0 mph 18.0 mph 84 % 0.00 in
12:53 80.1 °F 75.2 °F 29.67 in SE 11.0 mph 18.0 mph 85 % 0.00 in
12:58 79.9 °F 75.4 °F 29.68 in SSE 8.0 mph 18.0 mph 86 % 0.00 in
13:03 79.7 °F 75.2 °F 29.68 in SSE 9.0 mph 18.0 mph 86 % 0.00 in
13:08 79.3 °F 75.2 °F 29.68 in SSE 8.0 mph 18.0 mph 87 % 0.00 in
13:13 78.8 °F 75.0 °F 29.68 in SSE 4.0 mph 13.0 mph 88 % 0.03 in
13:18 76.6 °F 69.6 °F 29.71 in NW 10.0 mph 13.0 mph 79 % 0.12 in
13:23 71.2 °F 65.5 °F 29.73 in NW 11.0 mph 15.0 mph 82 % 0.16 in
13:28 67.5 °F 63.9 °F 29.70 in NNW 7.0 mph 17.0 mph 88 % 0.37 in
13:29 67.1 °F 63.5 °F 29.70 in WNW 6.0 mph 17.0 mph 88 % 0.37 in
13:34 65.5 °F 62.4 °F 29.70 in NW 5.0 mph 17.0 mph 90 % 0.41 in
13:39 64.8 °F 62.4 °F 29.71 in NW 6.0 mph 17.0 mph 92 % 0.41 in
13:44 64.6 °F 62.8 °F 29.70 in NW 5.0 mph 15.0 mph 94 % 0.42 in
13:49 64.2 °F 62.4 °F 29.70 in WNW 4.0 mph 14.0 mph 94 % 0.47 in
13:54 64.0 °F 62.6 °F 29.70 in Calm   12.0 mph 95 % 0.48 in
13:59 64.6 °F 63.5 °F 29.69 in ENE 2.0 mph 11.0 mph 96 % 0.48 in
14:04 64.6 °F 63.5 °F 29.70 in NW 2.0 mph 9.0 mph 96 % 0.48 in
14:09 64.9 °F 64.0 °F 29.69 in NE 2.0 mph 7.0 mph 97 % 0.48 in
14:14 65.5 °F 64.6 °F 29.68 in North 1.0 mph 6.0 mph 97 % 0.46 in
14:15 65.5 °F 64.6 °F 29.68 in Calm   6.0 mph 97 % 0.37 in
14:20 66.2 °F 65.3 °F 29.67 in NNW 1.0 mph 5.0 mph 97 % 0.32 in
14:25 66.6 °F 66.0 °F 29.67 in NNW 4.0 mph 5.0 mph 98 % 0.12 in
14:30 67.5 °F 66.9 °F 29.67 in North 2.0 mph 5.0 mph 98 % 0.08 in
14:35 67.5 °F 66.2 °F 29.67 in NNW 1.0 mph 6.0 mph 96 % 0.09 in
14:40 67.8 °F 66.9 °F 29.66 in NW 1.0 mph 7.0 mph 97 % 0.07 in
14:45 68.4 °F 67.1 °F 29.66 in NW 3.0 mph 7.0 mph 96 % 0.03 in
14:50 68.7 °F 67.8 °F 29.65 in NW 2.0 mph 7.0 mph 97 % 0.02 in
14:55 69.1 °F 67.8 °F 29.65 in NNW 5.0 mph 5.0 mph 96 % 0.02 in
15:00 69.3 °F 67.5 °F 29.65 in NW 4.0 mph 8.0 mph 94 % 0.02 in
15:05 69.6 °F 67.5 °F 29.65 in WNW 5.0 mph 8.0 mph 93 % 0.01 in
15:10 70.2 °F 67.6 °F 29.64 in NW 2.0 mph 8.0 mph 92 % 0.01 in
15:15 71.4 °F 68.7 °F 29.63 in NW 4.0 mph 8.0 mph 91 % 0.01 in
15:20 71.8 °F 67.3 °F 29.62 in NW 4.0 mph 9.0 mph 86 % 0.01 in
15:25 72.3 °F 67.8 °F 29.62 in North 2.0 mph 9.0 mph 86 % 0.01 in
15:30 73.0 °F 68.0 °F 29.62 in NW 3.0 mph 9.0 mph 84 % 0.01 in
15:35 73.2 °F 68.2 °F 29.62 in NW 7.0 mph 7.0 mph 84 % 0.00 in
15:40 73.2 °F 67.5 °F 29.61 in NNW 1.0 mph 9.0 mph 82 % 0.00 in
15:45 73.6 °F 68.4 °F 29.61 in NW 1.0 mph 9.0 mph 84 % 0.00 in
15:50 74.3 °F 68.0 °F 29.61 in WNW 3.0 mph 9.0 mph 81 % 0.00 in
15:55 74.8 °F 69.3 °F 29.61 in NW 2.0 mph 7.0 mph 83 % 0.00 in
16:00 75.0 °F 68.0 °F 29.61 in North 5.0 mph 6.0 mph 79 % 0.00 in
16:05 74.8 °F 67.1 °F 29.61 in Calm   6.0 mph 77 % 0.00 in
16:10 75.2 °F 67.8 °F 29.60 in NNW 2.0 mph 6.0 mph 78 % 0.00 in
16:15 75.7 °F 68.4 °F 29.60 in ENE 1.0 mph 6.0 mph 78 % 0.00 in
16:20 75.9 °F 67.1 °F 29.60 in WSW 3.0 mph 6.0 mph 74 % 0.00 in
16:25 75.7 °F 67.3 °F 29.60 in WNW 1.0 mph 6.0 mph 75 % 0.00 in
16:30 75.7 °F 66.9 °F 29.60 in NNW 3.0 mph 6.0 mph 74 % 0.00 in
16:35 75.6 °F 67.5 °F 29.60 in WNW 1.0 mph 5.0 mph 76 % 0.00 in
16:40 75.4 °F 67.6 °F 29.60 in North 1.0 mph 5.0 mph 77 % 0.00 in
16:44 75.2 °F 67.5 °F 29.60 in NNW 2.0 mph 5.0 mph 77 % 0.00 in
16:49 75.2 °F 67.5 °F 29.60 in NNW 2.0 mph 4.0 mph 77 % 0.00 in
16:54 75.0 °F 67.3 °F 29.60 in NNW 2.0 mph 5.0 mph 77 % 0.00 in
16:59 74.8 °F 67.5 °F 29.60 in Calm   5.0 mph 78 % 0.00 in
17:04 75.0 °F 67.6 °F 29.60 in NE 1.0 mph 5.0 mph 78 % 0.00 in
17:09 75.2 °F 68.2 °F 29.60 in North 2.0 mph 4.0 mph 79 % 0.00 in
17:14 75.0 °F 68.0 °F 29.59 in ENE 1.0 mph 3.0 mph 79 % 0.00 in
17:19 74.8 °F 67.8 °F 29.60 in Calm   3.0 mph 79 % 0.00 in
17:24 75.0 °F 68.0 °F 29.59 in ENE 1.0 mph 3.0 mph 79 % 0.00 in
17:29 75.0 °F 67.6 °F 29.59 in ESE 1.0 mph 3.0 mph 78 % 0.00 in
17:34 75.0 °F 67.6 °F 29.60 in Calm   3.0 mph 78 % 0.00 in
17:39 75.0 °F 67.6 °F 29.59 in Calm   3.0 mph 78 % 0.00 in
17:44 75.0 °F 67.6 °F 29.59 in NNE 1.0 mph 3.0 mph 78 % 0.00 in
17:50 75.0 °F 67.3 °F 29.59 in Calm   2.0 mph 77 % 0.00 in
17:55 74.8 °F 67.8 °F 29.60 in East 1.0 mph 2.0 mph 79 % 0.00 in
18:00 74.8 °F 67.8 °F 29.60 in Calm   3.0 mph 79 % 0.00 in
18:05 74.8 °F 67.8 °F 29.60 in East 1.0 mph 3.0 mph 79 % 0.00 in
18:10 74.7 °F 67.6 °F 29.60 in Calm   1.0 mph 79 % 0.00 in
18:15 74.5 °F 67.5 °F 29.60 in Calm   1.0 mph 79 % 0.00 in
18:20 74.5 °F 67.8 °F 29.60 in Calm   1.0 mph 80 % 0.00 in
18:25 74.5 °F 67.8 °F 29.60 in Calm   1.0 mph 80 % 0.00 in
18:30 74.1 °F 67.1 °F 29.60 in Calm   1.0 mph 79 % 0.00 in
18:35 74.1 °F 67.6 °F 29.60 in Calm   1.0 mph 80 % 0.00 in
18:40 74.1 °F 68.0 °F 29.60 in Calm   1.0 mph 81 % 0.00 in
18:45 74.1 °F 68.0 °F 29.60 in Calm   1.0 mph 81 % 0.00 in
18:50 74.5 °F 68.5 °F 29.61 in NNE 1.0 mph 1.0 mph 82 % 0.00 in
18:55 74.5 °F 68.2 °F 29.61 in NNW 1.0 mph 3.0 mph 81 % 0.00 in
19:00 74.5 °F 68.2 °F 29.61 in Calm   3.0 mph 81 % 0.00 in
19:05 74.7 °F 68.4 °F 29.62 in Calm   3.0 mph 81 % 0.00 in
19:10 74.7 °F 68.4 °F 29.61 in NW 1.0 mph 3.0 mph 81 % 0.00 in
19:11 74.7 °F 68.4 °F 29.61 in NW 1.0 mph 3.0 mph 81 % 0.00 in
19:16 74.5 °F 67.8 °F 29.61 in Calm   2.0 mph 80 % 0.00 in
19:21 74.5 °F 67.8 °F 29.61 in Calm   2.0 mph 80 % 0.00 in
19:26 74.5 °F 67.8 °F 29.62 in SW 1.0 mph 2.0 mph 80 % 0.00 in
19:31 74.5 °F 67.8 °F 29.62 in Calm   2.0 mph 80 % 0.00 in
19:36 74.3 °F 68.0 °F 29.62 in NNW 1.0 mph 3.0 mph 81 % 0.00 in
19:41 74.1 °F 68.0 °F 29.62 in NW 1.0 mph 3.0 mph 81 % 0.00 in
19:46 73.9 °F 68.2 °F 29.62 in West 1.0 mph 3.0 mph 82 % 0.00 in
19:51 73.6 °F 67.8 °F 29.62 in Calm   3.0 mph 82 % 0.00 in
19:56 73.4 °F 68.0 °F 29.62 in Calm   2.0 mph 83 % 0.00 in
20:01 73.0 °F 67.6 °F 29.62 in Calm   2.0 mph 83 % 0.00 in
20:06 72.9 °F 67.8 °F 29.63 in Calm   1.0 mph 84 % 0.00 in
20:11 72.7 °F 67.6 °F 29.62 in Calm   2.0 mph 84 % 0.00 in
20:16 72.3 °F 67.3 °F 29.62 in Calm   2.0 mph 84 % 0.00 in
20:21 72.0 °F 66.9 °F 29.62 in Calm   2.0 mph 84 % 0.00 in
20:26 71.6 °F 66.6 °F 29.62 in Calm   2.0 mph 84 % 0.00 in
20:31 71.2 °F 66.9 °F 29.63 in Calm     86 % 0.00 in
20:36 70.9 °F 66.6 °F 29.63 in Calm     86 % 0.00 in
20:41 70.5 °F 66.7 °F 29.63 in Calm     88 % 0.00 in
20:46 70.3 °F 66.6 °F 29.64 in Calm     88 % 0.00 in
20:51 70.0 °F 66.6 °F 29.64 in Calm     89 % 0.00 in
20:56 69.8 °F 66.7 °F 29.65 in Calm     90 % 0.00 in
21:01 69.6 °F 66.9 °F 29.65 in West 1.0 mph 1.0 mph 91 % 0.00 in
21:06 69.6 °F 66.9 °F 29.66 in WSW 2.0 mph 2.0 mph 91 % 0.00 in
21:11 69.8 °F 67.1 °F 29.66 in Calm   2.0 mph 91 % 0.00 in
21:16 70.0 °F 67.3 °F 29.67 in Calm   2.0 mph 91 % 0.00 in
21:21 70.0 °F 67.3 °F 29.67 in Calm   2.0 mph 91 % 0.00 in
21:26 70.0 °F 67.5 °F 29.67 in Calm   2.0 mph 92 % 0.00 in
21:31 70.0 °F 67.3 °F 29.67 in Calm   1.0 mph 91 % 0.00 in
21:36 70.0 °F 67.3 °F 29.68 in Calm   1.0 mph 91 % 0.00 in
21:41 70.0 °F 67.3 °F 29.68 in Calm   1.0 mph 91 % 0.00 in
21:46 70.0 °F 67.5 °F 29.68 in Calm   1.0 mph 92 % 0.00 in
21:51 70.0 °F 67.5 °F 29.68 in Calm   1.0 mph 92 % 0.00 in
21:56 70.0 °F 67.5 °F 29.68 in Calm   1.0 mph 92 % 0.00 in
22:01 70.0 °F 67.5 °F 29.69 in Calm   1.0 mph 92 % 0.00 in
22:06 70.0 °F 67.5 °F 29.69 in Calm   1.0 mph 92 % 0.00 in
22:11 69.8 °F 67.3 °F 29.69 in Calm   1.0 mph 92 % 0.00 in
22:17 69.8 °F 67.3 °F 29.69 in Calm   2.0 mph 92 % 0.00 in
22:22 69.8 °F 67.3 °F 29.69 in Calm   2.0 mph 92 % 0.00 in
22:27 69.6 °F 67.3 °F 29.70 in Calm   3.0 mph 92 % 0.00 in
22:32 69.6 °F 67.3 °F 29.71 in Calm   3.0 mph 92 % 0.00 in
22:37 69.4 °F 67.1 °F 29.71 in WNW 1.0 mph 3.0 mph 92 % 0.00 in
22:42 69.4 °F 67.1 °F 29.70 in Calm   2.0 mph 92 % 0.00 in
22:47 69.3 °F 66.9 °F 29.70 in Calm   3.0 mph 92 % 0.00 in
22:52 69.1 °F 66.7 °F 29.70 in Calm   3.0 mph 92 % 0.00 in
22:57 68.7 °F 66.6 °F 29.71 in Calm   3.0 mph 93 % 0.00 in
23:02 68.5 °F 66.4 °F 29.71 in Calm     93 % 0.00 in
23:07 68.5 °F 66.4 °F 29.70 in Calm     93 % 0.00 in
23:12 68.4 °F 66.2 °F 29.70 in Calm     93 % 0.00 in
23:17 68.0 °F 65.8 °F 29.70 in Calm     93 % 0.00 in
23:22 67.8 °F 66.0 °F 29.70 in Calm     94 % 0.00 in
23:27 67.8 °F 66.0 °F 29.70 in Calm     94 % 0.00 in
23:32 67.6 °F 65.8 °F 29.71 in Calm   1.0 mph 94 % 0.00 in
23:37 67.5 °F 65.7 °F 29.71 in Calm   1.0 mph 94 % 0.00 in
23:42 67.5 °F 65.7 °F 29.71 in Calm   1.0 mph 94 % 0.00 in
23:47 67.3 °F 65.5 °F 29.71 in Calm   1.0 mph 94 % 0.00 in
23:52 67.3 °F 65.5 °F 29.70 in West 1.0 mph 2.0 mph 94 % 0.00 in
23:57 67.3 °F 65.5 °F 29.69 in Calm   2.0 mph 94 % 0.00 in
Spring, Texas: Villages of Bridgestone
Compliments of Weather Underground - 2.75 mb

Script developed by  Jim McMurry - jmcmurry@mwt.net Adapted for the template by  Wim van der Kuil - Leuven-Template.eu

You find our weather info also at:

UK Metoffice

WeatherCloud

Weather Underground

Mid-South Weather Network

AWEKAS

Citizen Weather Observer Program (CWOP)

HAMweather, WeatherForYou, PWS Weather

Equipment we use:

Weather-station
Davis Vantage Vue

Weather-program
Meteohub

Weather-server
Debian 7.9 x86 (Guest)

Provider
DreamHost

Davis Vantage Vue

Meteohub

Debian 7.9 x86 (Guest)

DreamHost